sensor_id;sensor_type;location;lat;lon;timestamp;pressure;altitude;pressure_sealevel;temperature;humidity
10474;BME280;5284;50.446;7.904;2023-04-19T00:03:09;99264.97;;;10.01;100.00
10474;BME280;5284;50.446;7.904;2023-04-19T00:08:12;99252.03;;;9.95;100.00
10474;BME280;5284;50.446;7.904;2023-04-19T00:13:16;99251.41;;;9.91;100.00
10474;BME280;5284;50.446;7.904;2023-04-19T00:18:20;99250.84;;;9.99;100.00
10474;BME280;5284;50.446;7.904;2023-04-19T00:23:23;99242.22;;;9.95;100.00
10474;BME280;5284;50.446;7.904;2023-04-19T00:28:26;99252.03;;;9.95;100.00
10474;BME280;5284;50.446;7.904;2023-04-19T00:33:31;99262.06;;;9.91;100.00
10474;BME280;5284;50.446;7.904;2023-04-19T00:38:34;99259.59;;;9.88;100.00
10474;BME280;5284;50.446;7.904;2023-04-19T00:43:37;99249.91;;;9.87;100.00
10474;BME280;5284;50.446;7.904;2023-04-19T00:48:41;99244.91;;;9.83;100.00
10474;BME280;5284;50.446;7.904;2023-04-19T00:53:46;99236.69;;;9.86;100.00
10474;BME280;5284;50.446;7.904;2023-04-19T00:58:52;99246.72;;;9.82;100.00
10474;BME280;5284;50.446;7.904;2023-04-19T01:03:56;99239.34;;;9.86;100.00
10474;BME280;5284;50.446;7.904;2023-04-19T01:09:00;99236.38;;;9.78;100.00
10474;BME280;5284;50.446;7.904;2023-04-19T01:14:03;99237.13;;;9.80;100.00
10474;BME280;5284;50.446;7.904;2023-04-19T01:19:07;99225.13;;;9.74;100.00
10474;BME280;5284;50.446;7.904;2023-04-19T01:24:11;99228.91;;;9.83;100.00
10474;BME280;5284;50.446;7.904;2023-04-19T01:29:14;99220.09;;;9.82;100.00
10474;BME280;5284;50.446;7.904;2023-04-19T01:34:19;99219.34;;;9.80;100.00
10474;BME280;5284;50.446;7.904;2023-04-19T01:39:25;99208.69;;;9.80;100.00
10474;BME280;5284;50.446;7.904;2023-04-19T01:44:29;99212.31;;;9.79;100.00
10474;BME280;5284;50.446;7.904;2023-04-19T01:49:33;99201.25;;;9.73;100.00
10474;BME280;5284;50.446;7.904;2023-04-19T01:54:37;99203.59;;;9.77;100.00
10474;BME280;5284;50.446;7.904;2023-04-19T01:59:41;99192.72;;;9.80;100.00
10474;BME280;5284;50.446;7.904;2023-04-19T02:04:44;99199.97;;;9.78;100.00
10474;BME280;5284;50.446;7.904;2023-04-19T02:09:48;99188.44;;;9.78;100.00
10474;BME280;5284;50.446;7.904;2023-04-19T02:14:53;99186.66;;;9.78;100.00
10474;BME280;5284;50.446;7.904;2023-04-19T02:20:04;99182.81;;;9.70;100.00
10474;BME280;5284;50.446;7.904;2023-04-19T02:25:10;99178.78;;;9.64;100.00
10474;BME280;5284;50.446;7.904;2023-04-19T02:30:13;99171.75;;;9.51;100.00
10474;BME280;5284;50.446;7.904;2023-04-19T02:35:16;99177.66;;;9.43;100.00
10474;BME280;5284;50.446;7.904;2023-04-19T02:40:20;99174.56;;;9.37;100.00
10474;BME280;5284;50.446;7.904;2023-04-19T02:45:24;99173.16;;;9.31;100.00
10474;BME280;5284;50.446;7.904;2023-04-19T02:50:28;99167.44;;;9.37;100.00
10474;BME280;5284;50.446;7.904;2023-04-19T02:55:32;99169.88;;;9.40;100.00
10474;BME280;5284;50.446;7.904;2023-04-19T03:00:48;99158.28;;;9.41;100.00
10474;BME280;5284;50.446;7.904;2023-04-19T03:05:54;99155.09;;;9.36;100.00
10474;BME280;5284;50.446;7.904;2023-04-19T03:10:59;99157.63;;;9.38;100.00
10474;BME280;5284;50.446;7.904;2023-04-19T03:16:05;99166.13;;;9.43;100.00
10474;BME280;5284;50.446;7.904;2023-04-19T03:21:08;99163.16;;;9.47;100.00
10474;BME280;5284;50.446;7.904;2023-04-19T03:26:23;99154.22;;;9.48;100.00
10474;BME280;5284;50.446;7.904;2023-04-19T03:31:28;99161.09;;;9.51;100.00
10474;BME280;5284;50.446;7.904;2023-04-19T03:36:32;99143.34;;;9.51;100.00
10474;BME280;5284;50.446;7.904;2023-04-19T03:41:36;99148.34;;;9.56;100.00
10474;BME280;5284;50.446;7.904;2023-04-19T03:46:47;99144.50;;;9.60;100.00
10474;BME280;5284;50.446;7.904;2023-04-19T03:51:55;99133.13;;;9.58;100.00
10474;BME280;5284;50.446;7.904;2023-04-19T03:57:01;99132.38;;;9.56;100.00
10474;BME280;5284;50.446;7.904;2023-04-19T04:02:05;99139.41;;;9.57;100.00
10474;BME280;5284;50.446;7.904;2023-04-19T04:07:08;99128.63;;;9.58;100.00
10474;BME280;5284;50.446;7.904;2023-04-19T04:25:37;99145.97;;;9.64;100.00
10474;BME280;5284;50.446;7.904;2023-04-19T04:30:45;99138.94;;;9.63;100.00
10474;BME280;5284;50.446;7.904;2023-04-19T04:35:47;99137.78;;;9.67;100.00
10474;BME280;5284;50.446;7.904;2023-04-19T04:40:57;99142.22;;;9.66;100.00
10474;BME280;5284;50.446;7.904;2023-04-19T04:45:59;99140.13;;;9.71;100.00
10474;BME280;5284;50.446;7.904;2023-04-19T04:51:07;99140.31;;;9.68;100.00
10474;BME280;5284;50.446;7.904;2023-04-19T04:56:11;99140.94;;;9.72;100.00
10474;BME280;5284;50.446;7.904;2023-04-19T05:01:15;99146.28;;;9.72;100.00
10474;BME280;5284;50.446;7.904;2023-04-19T05:06:21;99146.19;;;9.73;100.00
10474;BME280;5284;50.446;7.904;2023-04-19T05:11:26;99139.75;;;9.76;100.00
10474;BME280;5284;50.446;7.904;2023-04-19T05:16:29;99130.81;;;9.77;100.00
10474;BME280;5284;50.446;7.904;2023-04-19T05:21:33;99142.09;;;9.80;100.00
10474;BME280;5284;50.446;7.904;2023-04-19T05:26:40;99150.19;;;9.79;100.00
10474;BME280;5284;50.446;7.904;2023-04-19T05:31:44;99136.88;;;9.79;100.00
10474;BME280;5284;50.446;7.904;2023-04-19T05:36:57;99136.97;;;9.90;100.00
10474;BME280;5284;50.446;7.904;2023-04-19T05:42:03;99134.53;;;9.87;100.00
10474;BME280;5284;50.446;7.904;2023-04-19T05:47:06;99123.66;;;9.90;100.00
10474;BME280;5284;50.446;7.904;2023-04-19T05:52:49;99123.53;;;9.91;100.00
10474;BME280;5284;50.446;7.904;2023-04-19T05:57:54;99128.41;;;9.97;100.00
10474;BME280;5284;50.446;7.904;2023-04-19T06:02:59;99124.38;;;10.04;100.00
10474;BME280;5284;50.446;7.904;2023-04-19T06:08:05;99126.22;;;10.15;100.00
10474;BME280;5284;50.446;7.904;2023-04-19T06:13:13;99131.22;;;10.19;100.00
10474;BME280;5284;50.446;7.904;2023-04-19T06:18:17;99119.72;;;10.42;100.00
10474;BME280;5284;50.446;7.904;2023-04-19T06:23:21;99132.97;;;10.31;100.00
10474;BME280;5284;50.446;7.904;2023-04-19T06:28:25;99136.50;;;10.32;100.00
10474;BME280;5284;50.446;7.904;2023-04-19T06:33:28;99133.84;;;10.32;100.00
10474;BME280;5284;50.446;7.904;2023-04-19T06:38:31;99134.97;;;10.40;100.00
10474;BME280;5284;50.446;7.904;2023-04-19T06:43:37;99136.06;;;10.49;100.00
10474;BME280;5284;50.446;7.904;2023-04-19T06:48:44;99130.81;;;10.60;100.00
10474;BME280;5284;50.446;7.904;2023-04-19T06:53:50;99127.84;;;10.86;100.00
10474;BME280;5284;50.446;7.904;2023-04-19T06:58:55;99134.28;;;10.94;100.00
10474;BME280;5284;50.446;7.904;2023-04-19T07:04:00;99128.59;;;10.99;100.00
10474;BME280;5284;50.446;7.904;2023-04-19T07:09:04;99116.34;;;11.18;100.00
10474;BME280;5284;50.446;7.904;2023-04-19T07:14:08;99119.78;;;11.42;99.42
10474;BME280;5284;50.446;7.904;2023-04-19T07:19:12;99117.84;;;11.33;97.97
10474;BME280;5284;50.446;7.904;2023-04-19T07:24:15;99117.22;;;11.19;96.37
10474;BME280;5284;50.446;7.904;2023-04-19T07:29:20;99115.66;;;11.27;96.32
10474;BME280;5284;50.446;7.904;2023-04-19T07:34:23;99108.88;;;11.23;96.34
10474;BME280;5284;50.446;7.904;2023-04-19T07:39:26;99107.63;;;11.16;97.50
10474;BME280;5284;50.446;7.904;2023-04-19T07:44:32;99108.41;;;11.62;95.41
10474;BME280;5284;50.446;7.904;2023-04-19T07:49:37;99101.63;;;12.01;93.00
10474;BME280;5284;50.446;7.904;2023-04-19T07:54:41;99097.75;;;12.36;88.23
10474;BME280;5284;50.446;7.904;2023-04-19T07:59:45;99096.28;;;12.63;83.75
10474;BME280;5284;50.446;7.904;2023-04-19T08:04:48;99100.66;;;13.05;83.25
10474;BME280;5284;50.446;7.904;2023-04-19T08:09:52;99104.56;;;13.22;79.90
10474;BME280;5284;50.446;7.904;2023-04-19T08:14:57;99094.47;;;13.05;80.84
10474;BME280;5284;50.446;7.904;2023-04-19T08:20:20;99089.41;;;13.02;80.10
10474;BME280;5284;50.446;7.904;2023-04-19T08:25:23;99084.03;;;13.02;82.94
10474;BME280;5284;50.446;7.904;2023-04-19T08:30:31;99082.47;;;12.99;79.36
10474;BME280;5284;50.446;7.904;2023-04-19T08:35:34;99088.09;;;13.56;78.73
10474;BME280;5284;50.446;7.904;2023-04-19T08:40:42;99088.44;;;13.42;76.67
10474;BME280;5284;50.446;7.904;2023-04-19T08:45:50;99081.88;;;13.16;76.86
10474;BME280;5284;50.446;7.904;2023-04-19T08:50:56;99084.41;;;13.18;75.86
10474;BME280;5284;50.446;7.904;2023-04-19T08:56:06;99088.44;;;13.72;71.13
10474;BME280;5284;50.446;7.904;2023-04-19T09:01:26;99080.75;;;14.07;69.37
10474;BME280;5284;50.446;7.904;2023-04-19T09:06:37;99073.06;;;14.32;67.76
10474;BME280;5284;50.446;7.904;2023-04-19T09:11:43;99078.88;;;13.88;66.15
10474;BME280;5284;50.446;7.904;2023-04-19T09:16:49;99070.28;;;14.04;65.04
10474;BME280;5284;50.446;7.904;2023-04-19T09:21:54;99066.41;;;14.36;64.20
10474;BME280;5284;50.446;7.904;2023-04-19T09:26:57;99067.22;;;14.75;63.57
10474;BME280;5284;50.446;7.904;2023-04-19T09:32:02;99063.84;;;15.37;62.77
10474;BME280;5284;50.446;7.904;2023-04-19T09:37:11;99059.53;;;15.08;60.29
10474;BME280;5284;50.446;7.904;2023-04-19T09:42:43;99054.06;;;15.46;59.40
10474;BME280;5284;50.446;7.904;2023-04-19T09:48:01;99048.72;;;15.63;57.71
10474;BME280;5284;50.446;7.904;2023-04-19T09:53:05;99045.50;;;16.04;57.84
10474;BME280;5284;50.446;7.904;2023-04-19T09:58:08;99046.72;;;15.92;54.83
10474;BME280;5284;50.446;7.904;2023-04-19T10:03:13;99042.97;;;15.85;54.42
10474;BME280;5284;50.446;7.904;2023-04-19T10:08:17;99036.16;;;15.18;55.53
10474;BME280;5284;50.446;7.904;2023-04-19T10:13:23;99029.16;;;15.44;52.12
10474;BME280;5284;50.446;7.904;2023-04-19T10:18:29;99040.56;;;15.29;54.21
10474;BME280;5284;50.446;7.904;2023-04-19T10:23:32;99022.31;;;15.23;53.74
10474;BME280;5284;50.446;7.904;2023-04-19T10:28:36;99023.72;;;15.80;52.37
10474;BME280;5284;50.446;7.904;2023-04-19T10:33:41;99012.09;;;16.24;51.18
10474;BME280;5284;50.446;7.904;2023-04-19T10:38:45;99005.03;;;16.41;51.84
10474;BME280;5284;50.446;7.904;2023-04-19T10:44:10;99006.69;;;16.07;49.81
10474;BME280;5284;50.446;7.904;2023-04-19T10:49:14;98999.94;;;16.03;49.08
10474;BME280;5284;50.446;7.904;2023-04-19T10:54:30;98995.06;;;16.24;49.67
10474;BME280;5284;50.446;7.904;2023-04-19T10:59:33;98990.16;;;16.54;49.97
10474;BME280;5284;50.446;7.904;2023-04-19T11:05:00;98976.22;;;16.59;47.03
10474;BME280;5284;50.446;7.904;2023-04-19T11:10:05;98979.75;;;16.59;46.12
10474;BME280;5284;50.446;7.904;2023-04-19T11:15:09;98974.88;;;17.13;46.24
10474;BME280;5284;50.446;7.904;2023-04-19T11:20:15;98965.53;;;16.32;44.37
10474;BME280;5284;50.446;7.904;2023-04-19T11:25:19;98959.84;;;16.52;44.75
10474;BME280;5284;50.446;7.904;2023-04-19T11:30:28;98951.19;;;17.66;45.27
10474;BME280;5284;50.446;7.904;2023-04-19T11:35:32;98953.50;;;17.53;43.36
10474;BME280;5284;50.446;7.904;2023-04-19T11:40:40;98951.84;;;17.60;42.19
10474;BME280;5284;50.446;7.904;2023-04-19T11:45:43;98942.88;;;18.49;42.97
10474;BME280;5284;50.446;7.904;2023-04-19T11:50:47;98940.03;;;19.21;41.13
10474;BME280;5284;50.446;7.904;2023-04-19T11:55:51;98930.09;;;19.05;40.56
10474;BME280;5284;50.446;7.904;2023-04-19T12:00:55;98933.69;;;20.05;40.06
10474;BME280;5284;50.446;7.904;2023-04-19T12:06:01;98923.38;;;18.85;38.81
10474;BME280;5284;50.446;7.904;2023-04-19T12:11:05;98918.91;;;19.85;39.44
10474;BME280;5284;50.446;7.904;2023-04-19T12:16:09;98917.75;;;21.56;39.21
10474;BME280;5284;50.446;7.904;2023-04-19T12:21:24;98902.50;;;21.55;37.56
10474;BME280;5284;50.446;7.904;2023-04-19T12:26:29;98907.47;;;22.71;35.69
10474;BME280;5284;50.446;7.904;2023-04-19T12:31:33;98899.94;;;21.18;36.51
10474;BME280;5284;50.446;7.904;2023-04-19T12:36:37;98886.78;;;21.65;36.40
10474;BME280;5284;50.446;7.904;2023-04-19T12:41:40;98892.72;;;24.01;34.76
10474;BME280;5284;50.446;7.904;2023-04-19T12:46:43;98886.00;;;23.50;33.19
10474;BME280;5284;50.446;7.904;2023-04-19T12:51:48;98875.22;;;23.76;31.09
10474;BME280;5284;50.446;7.904;2023-04-19T12:56:51;98884.53;;;25.11;30.09
10474;BME280;5284;50.446;7.904;2023-04-19T13:01:53;98878.47;;;24.44;28.56
10474;BME280;5284;50.446;7.904;2023-04-19T13:06:58;98876.28;;;21.97;29.78
10474;BME280;5284;50.446;7.904;2023-04-19T13:12:03;98862.84;;;23.80;30.46
10474;BME280;5284;50.446;7.904;2023-04-19T13:17:06;98852.56;;;23.75;31.78
10474;BME280;5284;50.446;7.904;2023-04-19T13:22:11;98843.59;;;27.03;28.51
10474;BME280;5284;50.446;7.904;2023-04-19T13:27:16;98843.53;;;27.63;28.55
10474;BME280;5284;50.446;7.904;2023-04-19T13:32:21;98831.50;;;24.42;28.94
10474;BME280;5284;50.446;7.904;2023-04-19T13:37:26;98830.16;;;26.04;28.51
10474;BME280;5284;50.446;7.904;2023-04-19T13:42:29;98815.78;;;27.42;27.95
10474;BME280;5284;50.446;7.904;2023-04-19T13:47:33;98806.59;;;23.00;26.64
10474;BME280;5284;50.446;7.904;2023-04-19T13:52:38;98802.66;;;21.92;28.08
10474;BME280;5284;50.446;7.904;2023-04-19T13:57:43;98804.78;;;21.05;30.53
10474;BME280;5284;50.446;7.904;2023-04-19T14:02:46;98797.94;;;21.09;30.38
10474;BME280;5284;50.446;7.904;2023-04-19T14:07:55;98790.09;;;22.40;30.94
10474;BME280;5284;50.446;7.904;2023-04-19T14:12:58;98794.16;;;21.25;30.75
10474;BME280;5284;50.446;7.904;2023-04-19T14:18:01;98789.41;;;22.93;30.10
10474;BME280;5284;50.446;7.904;2023-04-19T14:23:08;98792.69;;;24.34;29.45
10474;BME280;5284;50.446;7.904;2023-04-19T14:28:11;98788.66;;;24.75;28.54
10474;BME280;5284;50.446;7.904;2023-04-19T14:33:13;98786.84;;;26.01;27.89
10474;BME280;5284;50.446;7.904;2023-04-19T14:38:18;98781.44;;;26.67;26.06
10474;BME280;5284;50.446;7.904;2023-04-19T14:43:21;98787.06;;;26.72;24.34
10474;BME280;5284;50.446;7.904;2023-04-19T14:48:24;98782.28;;;28.51;23.97
10474;BME280;5284;50.446;7.904;2023-04-19T14:53:29;98770.22;;;28.52;23.37
10474;BME280;5284;50.446;7.904;2023-04-19T14:58:34;98778.28;;;30.93;22.88
10474;BME280;5284;50.446;7.904;2023-04-19T15:03:37;98783.81;;;32.95;22.60
10474;BME280;5284;50.446;7.904;2023-04-19T15:08:42;98786.94;;;33.08;21.06
10474;BME280;5284;50.446;7.904;2023-04-19T15:13:46;98779.44;;;34.71;20.58
10474;BME280;5284;50.446;7.904;2023-04-19T15:18:49;98776.28;;;27.13;25.02
10474;BME280;5284;50.446;7.904;2023-04-19T15:23:53;98767.28;;;29.27;24.30
10474;BME280;5284;50.446;7.904;2023-04-19T15:28:56;98787.72;;;31.78;22.47
10474;BME280;5284;50.446;7.904;2023-04-19T15:34:00;98795.13;;;31.99;21.64
10474;BME280;5284;50.446;7.904;2023-04-19T15:39:05;98777.50;;;28.58;23.20
10474;BME280;5284;50.446;7.904;2023-04-19T15:44:09;98767.94;;;21.67;28.36
10474;BME280;5284;50.446;7.904;2023-04-19T15:49:12;98779.78;;;28.61;23.57
10474;BME280;5284;50.446;7.904;2023-04-19T15:54:16;98766.38;;;20.29;30.36
10474;BME280;5284;50.446;7.904;2023-04-19T15:59:22;98777.84;;;29.86;22.56
10474;BME280;5284;50.446;7.904;2023-04-19T16:04:25;98776.06;;;30.74;21.70
10474;BME280;5284;50.446;7.904;2023-04-19T16:09:29;98762.78;;;29.77;21.68
10474;BME280;5284;50.446;7.904;2023-04-19T16:14:33;98778.94;;;31.38;21.93
10474;BME280;5284;50.446;7.904;2023-04-19T16:19:35;98766.50;;;22.40;27.06
10474;BME280;5284;50.446;7.904;2023-04-19T16:24:41;98781.09;;;28.47;23.25
10474;BME280;5284;50.446;7.904;2023-04-19T16:29:44;98783.41;;;29.75;22.35
10474;BME280;5284;50.446;7.904;2023-04-19T16:34:49;98786.59;;;30.44;20.97
10474;BME280;5284;50.446;7.904;2023-04-19T16:39:53;98794.16;;;27.81;21.63
10474;BME280;5284;50.446;7.904;2023-04-19T16:44:56;98788.53;;;30.60;21.71
10474;BME280;5284;50.446;7.904;2023-04-19T16:50:01;98785.66;;;29.78;21.03
10474;BME280;5284;50.446;7.904;2023-04-19T16:55:06;98784.28;;;28.32;22.37
10474;BME280;5284;50.446;7.904;2023-04-19T17:00:10;98786.22;;;28.03;22.73
10474;BME280;5284;50.446;7.904;2023-04-19T17:05:14;98784.00;;;27.70;22.63
10474;BME280;5284;50.446;7.904;2023-04-19T17:10:18;98773.38;;;26.72;22.89
10474;BME280;5284;50.446;7.904;2023-04-19T17:15:21;98775.06;;;25.32;23.73
10474;BME280;5284;50.446;7.904;2023-04-19T17:20:24;98757.00;;;22.02;25.68
10474;BME280;5284;50.446;7.904;2023-04-19T17:25:29;98760.91;;;19.11;29.51
10474;BME280;5284;50.446;7.904;2023-04-19T17:30:32;98766.13;;;17.16;31.42
10474;BME280;5284;50.446;7.904;2023-04-19T17:35:36;98764.84;;;15.61;33.39
10474;BME280;5284;50.446;7.904;2023-04-19T17:40:40;98765.38;;;14.95;34.50
10474;BME280;5284;50.446;7.904;2023-04-19T17:45:45;98762.56;;;14.15;35.97
10474;BME280;5284;50.446;7.904;2023-04-19T17:50:48;98764.81;;;13.65;37.19
10474;BME280;5284;50.446;7.904;2023-04-19T17:55:54;98777.94;;;13.39;37.92
10474;BME280;5284;50.446;7.904;2023-04-19T18:00:57;98775.41;;;13.19;39.06
10474;BME280;5284;50.446;7.904;2023-04-19T18:06:01;98779.00;;;12.70;38.71
10474;BME280;5284;50.446;7.904;2023-04-19T18:11:05;98778.75;;;12.34;39.85
10474;BME280;5284;50.446;7.904;2023-04-19T18:16:08;98790.38;;;11.94;40.27
10474;BME280;5284;50.446;7.904;2023-04-19T18:21:11;98789.34;;;11.85;41.03
10474;BME280;5284;50.446;7.904;2023-04-19T18:26:18;98793.56;;;11.58;40.73
10474;BME280;5284;50.446;7.904;2023-04-19T18:31:21;98796.44;;;11.34;41.19
10474;BME280;5284;50.446;7.904;2023-04-19T18:36:25;98799.03;;;11.25;39.79
10474;BME280;5284;50.446;7.904;2023-04-19T18:41:30;98795.72;;;11.01;39.88
10474;BME280;5284;50.446;7.904;2023-04-19T18:46:33;98785.34;;;10.87;40.79
10474;BME280;5284;50.446;7.904;2023-04-19T18:51:36;98797.16;;;10.73;41.12
10474;BME280;5284;50.446;7.904;2023-04-19T18:56:40;98793.53;;;10.63;41.13
10474;BME280;5284;50.446;7.904;2023-04-19T19:02:04;98796.00;;;10.56;41.48
10474;BME280;5284;50.446;7.904;2023-04-19T19:07:07;98804.47;;;10.39;41.91
10474;BME280;5284;50.446;7.904;2023-04-19T19:12:32;98805.34;;;10.28;41.82
10474;BME280;5284;50.446;7.904;2023-04-19T19:17:36;98803.50;;;10.18;41.54
10474;BME280;5284;50.446;7.904;2023-04-19T19:22:39;98809.34;;;10.12;41.47
10474;BME280;5284;50.446;7.904;2023-04-19T19:27:43;98815.41;;;10.03;42.98
10474;BME280;5284;50.446;7.904;2023-04-19T19:33:06;98810.16;;;9.90;42.61
10474;BME280;5284;50.446;7.904;2023-04-19T19:38:09;98810.13;;;9.79;42.91
10474;BME280;5284;50.446;7.904;2023-04-19T19:43:14;98813.28;;;9.73;43.82
10474;BME280;5284;50.446;7.904;2023-04-19T19:48:18;98807.69;;;9.65;44.15
10474;BME280;5284;50.446;7.904;2023-04-19T19:53:21;98814.44;;;9.58;43.63
10474;BME280;5284;50.446;7.904;2023-04-19T19:58:25;98816.47;;;9.44;44.59
10474;BME280;5284;50.446;7.904;2023-04-19T20:03:48;98811.63;;;9.38;45.28
10474;BME280;5284;50.446;7.904;2023-04-19T20:08:51;98816.53;;;9.31;45.76
10474;BME280;5284;50.446;7.904;2023-04-19T20:13:58;98819.56;;;9.27;45.76
10474;BME280;5284;50.446;7.904;2023-04-19T20:19:01;98818.34;;;9.20;46.47
10474;BME280;5284;50.446;7.904;2023-04-19T20:24:11;98813.69;;;9.11;47.29
10474;BME280;5284;50.446;7.904;2023-04-19T20:29:15;98817.91;;;9.03;46.85
10474;BME280;5284;50.446;7.904;2023-04-19T20:34:18;98808.38;;;8.88;47.68
10474;BME280;5284;50.446;7.904;2023-04-19T20:39:21;98817.03;;;8.79;48.60
10474;BME280;5284;50.446;7.904;2023-04-19T20:44:26;98810.25;;;8.75;46.89
10474;BME280;5284;50.446;7.904;2023-04-19T20:49:29;98807.28;;;8.67;47.94
10474;BME280;5284;50.446;7.904;2023-04-19T20:54:32;98819.47;;;8.58;49.62
10474;BME280;5284;50.446;7.904;2023-04-19T20:59:38;98820.56;;;8.43;48.09
10474;BME280;5284;50.446;7.904;2023-04-19T21:04:41;98812.81;;;8.40;50.28
10474;BME280;5284;50.446;7.904;2023-04-19T21:09:44;98811.47;;;8.35;49.86
10474;BME280;5284;50.446;7.904;2023-04-19T21:14:48;98806.91;;;8.24;50.40
10474;BME280;5284;50.446;7.904;2023-04-19T21:19:52;98806.50;;;8.18;50.24
10474;BME280;5284;50.446;7.904;2023-04-19T21:24:55;98807.72;;;8.12;50.89
10474;BME280;5284;50.446;7.904;2023-04-19T21:29:59;98804.78;;;8.04;51.26
10474;BME280;5284;50.446;7.904;2023-04-19T21:35:05;98795.41;;;7.99;51.60
10474;BME280;5284;50.446;7.904;2023-04-19T21:40:09;98791.00;;;7.87;52.20
10474;BME280;5284;50.446;7.904;2023-04-19T21:45:13;98788.13;;;7.77;53.30
10474;BME280;5284;50.446;7.904;2023-04-19T21:50:17;98784.19;;;7.70;54.45
10474;BME280;5284;50.446;7.904;2023-04-19T21:55:20;98778.06;;;7.57;56.37
10474;BME280;5284;50.446;7.904;2023-04-19T22:00:24;98773.69;;;7.44;58.20
10474;BME280;5284;50.446;7.904;2023-04-19T22:05:27;98777.00;;;7.35;59.13
10474;BME280;5284;50.446;7.904;2023-04-19T22:10:31;98764.88;;;7.19;58.50
10474;BME280;5284;50.446;7.904;2023-04-19T22:15:36;98767.94;;;7.00;60.69
10474;BME280;5284;50.446;7.904;2023-04-19T22:20:39;98758.25;;;6.87;64.66
10474;BME280;5284;50.446;7.904;2023-04-19T22:25:42;98760.94;;;6.73;67.73
10474;BME280;5284;50.446;7.904;2023-04-19T22:30:46;98753.94;;;6.72;69.29
10474;BME280;5284;50.446;7.904;2023-04-19T22:35:49;98748.22;;;6.65;67.76
10474;BME280;5284;50.446;7.904;2023-04-19T22:40:52;98746.56;;;6.50;67.82
10474;BME280;5284;50.446;7.904;2023-04-19T22:45:56;98733.59;;;6.33;72.12
10474;BME280;5284;50.446;7.904;2023-04-19T22:50:59;98734.28;;;6.23;73.02
10474;BME280;5284;50.446;7.904;2023-04-19T22:56:02;98726.34;;;6.09;75.18
10474;BME280;5284;50.446;7.904;2023-04-19T23:01:06;98715.34;;;6.03;76.44
10474;BME280;5284;50.446;7.904;2023-04-19T23:06:09;98707.13;;;5.93;79.23
10474;BME280;5284;50.446;7.904;2023-04-19T23:11:12;98697.22;;;5.83;81.69
10474;BME280;5284;50.446;7.904;2023-04-19T23:16:16;98689.63;;;5.77;81.42
10474;BME280;5284;50.446;7.904;2023-04-19T23:21:19;98685.41;;;5.60;83.03
10474;BME280;5284;50.446;7.904;2023-04-19T23:26:22;98682.41;;;5.52;83.20
10474;BME280;5284;50.446;7.904;2023-04-19T23:31:27;98686.09;;;5.36;85.82
10474;BME280;5284;50.446;7.904;2023-04-19T23:36:30;98678.34;;;5.33;87.61
10474;BME280;5284;50.446;7.904;2023-04-19T23:41:32;98664.84;;;5.37;84.30
10474;BME280;5284;50.446;7.904;2023-04-19T23:46:37;98673.16;;;5.31;88.33
10474;BME280;5284;50.446;7.904;2023-04-19T23:51:40;98659.00;;;5.32;86.94
10474;BME280;5284;50.446;7.904;2023-04-19T23:56:43;98662.66;;;5.44;84.12
